Time;durP1;ratioP1;P1;durP2;ratioP2;P2;SDS_P1;SDS_P2;PMS_P1;PMS_P2;Temp;Humidity;BMP_temperature;BMP_pressure;BME280_temperature;BME280_humidity;BME280_pressure;Samples;Min_cycle;Max_cycle;Signal;HPM_P1;HPM_P2
2021/07/22 02:33:01;;;;;;;9.10;5.12;;;;;;;20.21;54.44;100272.81;4965032;28;34952;-95
2021/07/22 02:36:31;;;;;;;;;;;;;;;;;;;;;
2021/07/22 02:45:33;;;;;;;;;;;;;;;;;;;;;
2021/07/22 02:49:38;;;;;;;;;;;;;;;;;;;;;
2021/07/22 03:51:38;;;;;;;8.55;6.28;;;;;;;19.58;56.56;100302.03;5085556;28;34248;-94
2021/07/22 04:12:00;;;;;;;;;;;;;;;;;;;;;
2021/07/22 04:23:53;;;;;;;9.07;6.28;;;;;;;19.84;55.96;100307.41;4940247;28;20091;-96
2021/07/22 04:34:11;;;;;;;12.32;7.05;;;;;;;20.12;55.45;100303.03;4872894;28;20122;-95
2021/07/22 04:38:01;;;;;;;9.60;6.25;;;;;;;20.24;55.07;100302.69;4988619;28;36478;-96
2021/07/22 04:41:37;;;;;;;7.70;6.40;;;;;;;20.32;54.42;100304.22;4996438;28;34884;-95
2021/07/22 04:45:43;;;;;;;12.15;6.12;;;;;;;20.43;54.30;100302.94;5048127;28;33991;-96
2021/07/22 04:52:50;;;;;;;8.07;6.45;;;;;;;20.73;52.72;100312.50;5046257;28;34262;-96
2021/07/22 04:55:41;;;;;;;8.98;6.95;;;;;;;20.66;52.95;100304.81;5068645;28;33664;-96
2021/07/22 04:58:57;;;;;;;12.77;6.32;;;;;;;20.78;52.39;100305.28;5095234;28;33815;-96
2021/07/22 05:01:53;;;;;;;11.48;6.87;;;;;;;20.81;52.34;100306.97;5079297;28;34490;-96
2021/07/22 05:05:08;;;;;;;8.00;6.32;;;;;;;20.89;52.40;100313.72;5081180;28;34954;-96
2021/07/22 05:07:59;;;;;;;10.40;6.80;;;;;;;20.98;52.24;100311.69;5082725;28;33791;-96
2021/07/22 05:10:54;;;;;;;10.73;6.75;;;;;;;21.00;52.32;100305.41;5107604;28;33543;-94
2021/07/22 05:14:06;;;;;;;10.55;6.25;;;;;;;20.85;52.66;100312.09;5070681;27;20060;-96
2021/07/22 05:16:50;;;;;;;9.57;6.32;;;;;;;20.97;55.54;100309.97;5076133;28;34254;-96
2021/07/22 05:19:36;;;;;;;8.75;6.28;;;;;;;21.21;52.46;100307.34;5050043;28;33768;-96
2021/07/22 05:22:28;;;;;;;8.18;6.15;;;;;;;21.45;51.53;100316.19;5056144;28;33291;-94
2021/07/22 05:25:20;;;;;;;7.43;6.07;;;;;;;21.62;49.82;100310.28;5045729;28;34557;-94
2021/07/22 05:28:21;;;;;;;12.63;6.80;;;;;;;21.62;49.72;100305.84;5077157;28;35285;-95
2021/07/22 05:31:06;;;;;;;;;;;;;;;21.48;50.06;100313.44;5050550;28;34117;-93
2021/07/22 05:33:47;;;;;;;8.23;5.72;;;;;;;21.40;49.61;100311.06;5088651;28;33187;-92
2021/07/22 05:36:46;;;;;;;10.83;6.27;;;;;;;21.76;49.36;100313.25;5094083;28;34753;-93
2021/07/22 05:39:34;;;;;;;8.43;5.68;;;;;;;21.86;49.56;100309.38;5116089;28;34006;-92
2021/07/22 05:42:29;;;;;;;7.87;5.75;;;;;;;21.82;49.44;100303.28;5115532;28;34801;-93
2021/07/22 05:46:03;;;;;;;9.90;5.85;;;;;;;21.90;49.23;100300.41;5128561;28;34999;-95
2021/07/22 05:53:03;;;;;;;8.13;6.15;;;;;;;22.39;47.34;100304.66;5130768;28;35549;-94
2021/07/22 05:56:34;;;;;;;10.30;6.12;;;;;;;22.36;47.83;100315.34;5047626;28;33890;-93
2021/07/22 05:59:23;;;;;;;7.80;6.10;;;;;;;22.30;48.39;100305.03;5067289;28;34367;-93
2021/07/22 06:02:03;;;;;;;9.52;5.75;;;;;;;22.53;47.18;100310.25;5054071;28;34785;-93
2021/07/22 06:04:55;;;;;;;9.73;6.57;;;;;;;22.55;47.90;100305.72;5041781;28;33644;-94
2021/07/22 06:07:26;;;;;;;13.38;6.55;;;;;;;22.79;46.10;100305.63;5035961;28;33949;-94
2021/07/22 06:10:25;;;;;;;10.75;6.25;;;;;;;22.84;46.55;100298.31;5055209;28;20125;-95
2021/07/22 06:13:28;;;;;;;12.73;5.68;;;;;;;22.82;47.35;100305.47;5051948;28;33497;-94
2021/07/22 06:16:14;;;;;;;9.15;5.80;;;;;;;22.98;47.15;100305.69;5037385;28;34061;-96
2021/07/22 06:19:03;;;;;;;10.15;5.65;;;;;;;23.03;47.83;100309.03;5021411;28;33854;-96
2021/07/22 06:21:32;;;;;;;9.55;5.53;;;;;;;23.21;45.59;100307.34;5049538;28;33013;-94
2021/07/22 06:24:00;;;;;;;10.30;5.60;;;;;;;23.43;44.78;100309.03;5031896;28;33401;-94
2021/07/22 06:27:01;;;;;;;8.77;5.47;;;;;;;23.58;45.17;100306.62;5057011;28;34037;-92
2021/07/22 06:29:28;;;;;;;11.07;5.95;;;;;;;23.74;44.64;100308.50;5070986;28;33581;-93
2021/07/22 06:32:15;;;;;;;11.73;5.07;;;;;;;23.79;43.85;100310.94;5115179;28;33916;-96
2021/07/22 06:34:58;;;;;;;9.65;5.55;;;;;;;24.00;43.56;100315.25;5063143;28;33831;-96
2021/07/22 06:37:45;;;;;;;9.18;5.53;;;;;;;23.98;44.19;100309.16;5164099;27;34077;-95
2021/07/22 06:40:26;;;;;;;8.57;5.72;;;;;;;24.25;44.00;100305.22;5201376;27;33401;-96
2021/07/22 06:43:08;;;;;;;12.13;5.50;;;;;;;24.49;42.65;100309.34;5175793;27;33875;-95
2021/07/22 06:45:36;;;;;;;9.90;5.85;;;;;;;24.45;43.49;100313.09;5141094;27;33276;-95
2021/07/22 06:48:28;;;;;;;11.05;5.18;;;;;;;24.44;44.08;100310.53;5146923;27;34692;-92
2021/07/22 06:51:08;;;;;;;11.20;5.93;;;;;;;24.60;44.16;100314.16;5160314;27;33987;-95
2021/07/22 06:53:51;;;;;;;9.65;5.75;;;;;;;24.82;43.19;100305.03;5161271;27;33442;-95
2021/07/22 06:59:50;;;;;;;9.50;5.28;;;;;;;25.14;42.88;100299.88;5234022;27;20124;-93
2021/07/22 07:02:30;;;;;;;9.60;5.25;;;;;;;25.27;42.52;100298.31;5189930;27;34432;-96
2021/07/22 07:05:12;;;;;;;7.25;4.70;;;;;;;25.62;41.21;100302.66;5186730;27;32520;-94
2021/07/22 07:07:57;;;;;;;9.10;5.05;;;;;;;25.72;40.77;100306.50;5166303;27;33568;-94
2021/07/22 07:10:36;;;;;;;8.23;5.35;;;;;;;25.97;40.26;100311.37;5197614;27;34115;-94
2021/07/22 07:13:22;;;;;;;7.45;4.70;;;;;;;26.28;39.99;100305.22;5166002;27;34236;-95
2021/07/22 07:16:39;;;;;;;8.20;4.50;;;;;;;26.41;42.18;100299.09;5162358;27;33007;-93
2021/07/22 07:19:27;;;;;;;7.78;4.35;;;;;;;26.75;39.41;100306.91;5181790;27;33919;-94
2021/07/22 07:22:10;;;;;;;8.85;4.70;;;;;;;27.22;38.21;100298.72;5183127;27;34103;-92
2021/07/22 07:24:38;;;;;;;7.62;4.43;;;;;;;27.28;38.23;100306.38;5213413;27;34152;-95
2021/07/22 07:27:09;;;;;;;;;;;;;;;27.37;37.83;100297.84;5179844;27;32683;-94
2021/07/22 07:30:07;;;;;;;11.82;4.65;;;;;;;27.28;39.65;100301.03;5200014;27;34320;-92
2021/07/22 07:32:35;;;;;;;8.25;4.68;;;;;;;27.49;37.67;100302.44;5178119;27;34165;-93
2021/07/22 07:35:12;;;;;;;6.05;4.57;;;;;;;27.58;37.28;100308.13;5181479;27;34170;-92
2021/07/22 07:37:41;;;;;;;7.80;4.65;;;;;;;27.52;38.35;100299.56;5178660;27;33010;-94
2021/07/22 07:40:26;;;;;;;7.75;4.07;;;;;;;27.84;36.86;100296.66;5199127;27;34780;-95
2021/07/22 07:42:54;;;;;;;8.70;4.20;;;;;;;27.97;36.52;100295.81;5179227;27;35567;-96
2021/07/22 07:45:51;;;;;;;8.93;4.37;;;;;;;28.12;36.25;100300.19;5165544;27;33689;-96
2021/07/22 07:48:48;;;;;;;6.70;4.07;;;;;;;28.32;36.08;100293.56;5155195;27;33488;-91
2021/07/22 07:51:15;;;;;;;7.55;3.92;;;;;;;28.29;36.13;100290.25;5137370;27;33325;-91
2021/07/22 07:53:44;;;;;;;8.23;4.85;;;;;;;28.40;36.45;100295.75;5136040;27;33904;-93
2021/07/22 07:56:13;;;;;;;8.43;4.50;;;;;;;28.58;35.96;100287.34;5154096;27;34138;-94
2021/07/22 07:59:07;;;;;;;7.72;4.75;;;;;;;28.53;36.58;100296.62;5160847;27;33349;-91
2021/07/22 08:01:36;;;;;;;6.62;4.60;;;;;;;28.55;36.51;100292.91;5157135;27;33757;-92
2021/07/22 08:04:24;;;;;;;11.02;4.62;;;;;;;28.69;36.19;100287.50;5162805;27;34771;-92
2021/07/22 08:06:52;;;;;;;9.93;5.40;;;;;;;28.46;36.50;100296.19;5174904;27;35327;-91
2021/07/22 08:09:25;;;;;;;6.28;4.97;;;;;;;28.43;36.18;100296.38;5158290;27;33031;-90
2021/07/22 08:11:52;;;;;;;9.52;4.35;;;;;;;28.55;36.38;100298.25;5157589;27;34886;-91
2021/07/22 08:14:21;;;;;;;9.10;5.00;;;;;;;28.64;36.58;100286.12;5140563;27;33879;-89
2021/07/22 08:16:49;;;;;;;6.97;4.57;;;;;;;28.84;36.54;100288.31;5140408;27;33283;-90
2021/07/22 08:19:59;;;;;;;;;;;;;;;;;;;;;
2021/07/22 08:22:59;;;;;;;;;;;;;;;28.60;37.65;100288.13;5091472;28;34841;-95
2021/07/22 08:25:47;;;;;;;9.63;4.87;;;;;;;28.89;36.35;100280.81;5166850;27;35919;-94
2021/07/22 08:28:51;;;;;;;9.45;4.87;;;;;;;28.96;35.90;100291.97;5167042;27;33308;-95
2021/07/22 08:31:43;;;;;;;12.70;4.95;;;;;;;28.59;38.31;100291.78;5165635;27;33853;-94
2021/07/22 08:34:29;;;;;;;11.02;4.40;;;;;;;28.69;37.13;100292.03;5139089;27;32816;-93
2021/07/22 08:37:26;;;;;;;6.85;4.30;;;;;;;29.04;35.51;100284.28;5117618;28;35843;-92
2021/07/22 08:40:01;;;;;;;9.55;5.40;;;;;;;28.84;36.43;100283.81;5097209;28;34361;-94
2021/07/22 08:43:04;;;;;;;9.23;4.40;;;;;;;29.05;35.46;100280.66;5169547;27;34126;-94
2021/07/22 08:45:49;;;;;;;7.95;5.07;;;;;;;28.99;34.77;100287.28;5149963;27;33778;-91
2021/07/22 08:48:17;;;;;;;7.32;4.18;;;;;;;28.90;35.38;100285.22;5133020;27;34292;-90
2021/07/22 08:50:48;;;;;;;13.15;5.55;;;;;;;29.04;34.93;100278.94;5151375;27;33908;-95
2021/07/22 08:53:22;;;;;;;6.78;4.95;;;;;;;29.20;33.66;100277.78;5168835;27;33365;-96
2021/07/22 08:56:21;;;;;;;6.65;4.80;;;;;;;29.23;35.19;100274.91;5123619;27;34700;-95
2021/07/22 09:03:28;;;;;;;6.87;4.10;;;;;;;29.12;34.72;100274.75;5074971;28;35068;-96
2021/07/22 09:06:13;;;;;;;7.43;5.12;;;;;;;29.21;35.19;100271.50;5038979;28;33565;-94
2021/07/22 09:09:17;;;;;;;10.32;4.50;;;;;;;29.31;33.79;100261.00;5053626;28;33458;-91
2021/07/22 09:12:00;;;;;;;7.87;4.97;;;;;;;29.25;33.23;100272.97;5051272;28;34055;-93
2021/07/22 09:14:31;;;;;;;5.80;4.97;;;;;;;29.41;32.64;100268.25;5063395;28;34147;-95
2021/07/22 09:17:25;;;;;;;9.65;4.80;;;;;;;29.31;35.29;100255.62;5111050;28;33116;-91
2021/07/22 09:19:54;;;;;;;7.82;4.60;;;;;;;29.46;33.12;100262.56;5108463;28;33426;-90
2021/07/22 09:22:39;;;;;;;7.53;5.47;;;;;;;29.28;33.39;100261.19;5108133;28;34575;-90
2021/07/22 09:25:09;;;;;;;10.30;4.72;;;;;;;29.28;32.89;100255.84;5090943;28;33698;-92
2021/07/22 09:27:39;;;;;;;10.55;4.82;;;;;;;29.24;32.17;100262.38;5091043;28;33898;-93
2021/07/22 09:30:19;;;;;;;6.50;4.78;;;;;;;29.49;31.71;100257.87;5128138;27;33331;-94
2021/07/22 09:33:05;;;;;;;9.23;4.70;;;;;;;29.37;31.02;100253.38;5160559;27;35158;-93
2021/07/22 09:35:59;;;;;;;5.65;4.28;;;;;;;29.43;32.43;100254.75;5175461;27;33729;-94
2021/07/22 09:39:30;;;;;;;9.15;4.43;;;;;;;29.56;32.03;100252.91;5130177;28;33317;-94
2021/07/22 09:42:48;;;;;;;5.75;4.28;;;;;;;29.64;32.82;100258.59;5105654;27;34620;-91
2021/07/22 09:45:17;;;;;;;;;;;;;;;29.66;32.68;100259.34;5137585;27;35385;-91
2021/07/22 09:47:48;;;;;;;8.13;4.57;;;;;;;29.82;30.08;100257.31;5154082;27;35079;-93
2021/07/22 09:50:20;;;;;;;8.02;4.68;;;;;;;29.78;30.47;100250.47;5120297;27;32938;-91
2021/07/22 09:53:05;;;;;;;10.30;5.47;;;;;;;29.89;30.18;100253.22;5136914;27;34113;-92
2021/07/22 09:55:34;;;;;;;8.45;4.65;;;;;;;29.95;30.05;100246.56;5154085;27;34447;-92
2021/07/22 09:58:07;;;;;;;10.10;4.68;;;;;;;29.97;30.55;100256.19;5154226;27;34793;-93
2021/07/22 10:00:38;;;;;;;7.55;4.90;;;;;;;29.96;31.95;100248.25;5137102;27;34945;-92
2021/07/22 10:03:10;;;;;;;7.70;5.62;;;;;;;29.10;33.62;100246.34;5136460;27;33955;-92
2021/07/22 10:05:40;;;;;;;6.90;4.72;;;;;;;29.68;32.20;100253.87;5120435;27;34183;-92
2021/07/22 10:08:19;;;;;;;7.30;4.78;;;;;;;29.45;31.31;100248.31;5122240;27;33908;-95
2021/07/22 10:11:16;;;;;;;9.20;4.70;;;;;;;29.38;32.67;100241.66;5161435;27;34734;-94
2021/07/22 10:14:03;;;;;;;8.35;5.43;;;;;;;29.38;33.89;100235.47;5125551;27;34565;-95
2021/07/22 10:17:09;;;;;;;7.55;4.80;;;;;;;29.43;32.82;100242.19;5132386;27;34120;-94
2021/07/22 10:20:32;;;;;;;7.62;5.18;;;;;;;29.60;31.27;100241.00;5134903;27;33676;-96
2021/07/22 10:23:25;;;;;;;9.35;5.65;;;;;;;29.21;34.51;100230.44;5170961;27;35007;-96
2021/07/22 10:26:20;;;;;;;11.38;5.40;;;;;;;29.59;33.04;100243.81;5137802;27;34789;-96
2021/07/22 10:29:15;;;;;;;8.85;5.43;;;;;;;29.86;30.51;100237.34;5151686;27;35444;-95
2021/07/22 10:32:52;;;;;;;8.68;5.15;;;;;;;30.05;30.36;100237.69;5152150;27;20126;-95
2021/07/22 10:43:12;;;;;;;6.90;4.82;;;;;;;30.31;28.20;100232.25;5153581;27;35073;-93
2021/07/22 10:47:12;;;;;;;;;;;;;;;;;;;;;
2021/07/22 10:50:16;;;;;;;6.25;5.50;;;;;;;30.39;28.38;100229.88;5139475;27;34819;-94
2021/07/22 10:57:47;;;;;;;9.05;4.93;;;;;;;30.14;30.56;100225.47;5152760;27;35266;-96
2021/07/22 11:00:48;;;;;;;7.53;5.10;;;;;;;30.13;29.07;100229.09;5150991;27;34236;-90
2021/07/22 11:03:37;;;;;;;8.55;5.18;;;;;;;29.89;28.88;100230.91;5153508;27;33618;-94
2021/07/22 11:06:13;;;;;;;7.75;4.90;;;;;;;29.80;29.46;100216.34;5154212;27;33914;-93
2021/07/22 11:08:42;;;;;;;11.07;5.35;;;;;;;29.58;31.51;100217.97;5152951;27;34625;-93
2021/07/22 11:11:48;;;;;;;7.47;5.05;;;;;;;29.38;30.72;100214.88;5140279;27;34310;-94
2021/07/22 11:14:39;;;;;;;6.78;5.20;;;;;;;29.58;29.05;100216.13;5173450;27;33554;-93
2021/07/22 11:17:31;;;;;;;7.37;5.12;;;;;;;29.48;29.47;100215.06;5177460;27;34320;-92
2021/07/22 11:20:17;;;;;;;12.45;5.30;;;;;;;29.69;29.39;100216.22;5141934;27;34235;-92
2021/07/22 11:23:14;;;;;;;9.30;5.43;;;;;;;29.15;30.14;100212.06;5162496;27;34305;-95
2021/07/22 11:26:09;;;;;;;9.23;4.78;;;;;;;29.36;29.71;100210.59;5190193;27;33356;-90
2021/07/22 11:28:48;;;;;;;7.30;5.20;;;;;;;29.55;30.46;100205.63;5154499;27;34941;-95
2021/07/22 11:31:49;;;;;;;9.48;5.18;;;;;;;29.66;29.49;100203.06;5148916;27;33846;-96
2021/07/22 11:34:45;;;;;;;9.43;5.87;;;;;;;29.88;30.46;100195.16;5176496;27;35729;-95
2021/07/22 11:37:48;;;;;;;8.13;5.53;;;;;;;30.06;30.65;100204.56;5161954;27;33358;-96
2021/07/22 11:40:34;;;;;;;7.32;5.18;;;;;;;30.03;29.40;100198.56;5120624;27;33611;-94
2021/07/22 11:43:32;;;;;;;10.15;6.05;;;;;;;30.14;30.32;100201.31;5121681;27;34432;-95
2021/07/22 11:46:43;;;;;;;8.73;5.37;;;;;;;30.11;30.52;100197.03;5149989;27;34946;-91
2021/07/22 11:49:16;;;;;;;7.65;5.62;;;;;;;30.44;29.27;100195.50;5132498;27;33022;-91
2021/07/22 11:51:46;;;;;;;8.70;5.43;;;;;;;30.44;29.38;100195.50;5165711;27;33701;-91
2021/07/22 11:54:17;;;;;;;11.02;5.97;;;;;;;30.39;29.40;100190.47;5165756;27;34452;-92
2021/07/22 11:57:12;;;;;;;10.88;5.95;;;;;;;30.23;29.86;100191.72;5166412;27;34188;-96
2021/07/22 12:00:36;;;;;;;6.55;5.30;;;;;;;30.36;29.38;100188.00;5158345;27;33564;-95
2021/07/22 12:07:16;;;;;;;7.35;5.37;;;;;;;30.38;29.64;100177.19;5128321;27;36172;-93
2021/07/22 12:26:52;;;;;;;;;;;;;;;;;;;;;
2021/07/22 13:28:30;;;;;;;10.40;5.28;;;;;;;30.10;28.52;100112.16;5214258;27;20059;-96
2021/07/22 13:44:43;;;;;;;5.78;5.07;;;;;;;30.42;28.07;100103.50;5137037;27;20135;-93
2021/07/22 13:48:11;;;;;;;6.85;4.93;;;;;;;30.41;28.13;100088.37;5108045;28;35443;-91
2021/07/22 13:51:24;;;;;;;5.20;4.55;;;;;;;30.51;27.50;100086.69;5092591;28;34990;-92
2021/07/22 13:54:47;;;;;;;;;;;;;;;;;;;;;
2021/07/22 14:12:45;;;;;;;6.10;4.62;;;;;;;30.48;29.26;100084.22;5148687;27;36273;-89
2021/07/22 14:19:26;;;;;;;6.37;4.68;;;;;;;30.70;29.01;100077.09;5150699;27;33955;-91
2021/07/22 14:22:55;;;;;;;6.30;4.80;;;;;;;30.69;28.53;100071.84;5162454;27;34486;-93
2021/07/22 14:30:28;;;;;;;8.73;4.70;;;;;;;30.58;29.85;100061.06;5139460;27;34335;-93
2021/07/22 14:33:38;;;;;;;9.07;4.85;;;;;;;30.67;29.51;100058.53;5140191;27;33590;-93
2021/07/22 14:46:53;;;;;;;10.32;5.20;;;;;;;30.63;27.81;100040.97;5172386;27;33805;-91
2021/07/22 14:49:24;;;;;;;;;;;;;;;30.56;28.24;100036.19;5137001;27;33346;-92
2021/07/22 14:51:52;;;;;;;7.18;4.57;;;;;;;30.58;26.86;100036.91;5154695;27;35190;-92
2021/07/22 14:54:22;;;;;;;9.70;5.28;;;;;;;30.61;26.09;100031.31;5154036;27;34339;-93
2021/07/22 14:56:59;;;;;;;6.50;5.03;;;;;;;30.65;26.13;100030.09;5123263;27;33866;-95
2021/07/22 14:59:47;;;;;;;6.75;5.15;;;;;;;30.56;26.55;100026.31;5171850;27;33334;-93
2021/07/22 15:02:37;;;;;;;6.05;4.95;;;;;;;30.47;26.95;100028.88;5169985;27;35059;-92
2021/07/22 15:05:13;;;;;;;6.57;4.68;;;;;;;30.59;26.25;100030.59;5138547;27;33652;-93
2021/07/22 15:07:50;;;;;;;5.50;4.37;;;;;;;30.47;26.73;100023.50;5136765;27;33197;-91
2021/07/22 15:10:21;;;;;;;6.72;4.60;;;;;;;30.43;27.32;100027.41;5153477;27;33567;-91
2021/07/22 15:13:10;;;;;;;7.97;4.93;;;;;;;30.35;26.93;100024.47;5155725;27;34907;-88
2021/07/22 15:15:39;;;;;;;6.10;5.10;;;;;;;30.43;27.29;100022.03;5136273;27;33498;-89
2021/07/22 15:18:06;;;;;;;6.12;5.50;;;;;;;30.49;28.47;100018.84;5136461;27;33467;-91
2021/07/22 15:20:39;;;;;;;7.22;5.10;;;;;;;30.20;28.89;100015.72;5153750;27;33581;-88
2021/07/22 15:23:07;;;;;;;10.13;4.87;;;;;;;30.31;28.83;100017.59;5136078;27;35067;-90
2021/07/22 15:25:38;;;;;;;7.03;5.47;;;;;;;30.32;28.56;100011.25;5137446;27;34027;-90
2021/07/22 15:28:08;;;;;;;5.37;4.40;;;;;;;30.25;28.45;100007.31;5137149;27;32671;-90
2021/07/22 15:30:36;;;;;;;7.93;5.40;;;;;;;30.35;27.18;100005.66;5152646;27;33528;-91
2021/07/22 15:33:05;;;;;;;7.80;5.50;;;;;;;30.30;27.71;100005.16;5136707;27;34034;-90
2021/07/22 15:35:35;;;;;;;7.20;5.05;;;;;;;30.22;27.24;100002.19;5134822;27;34172;-91
2021/07/22 15:38:08;;;;;;;5.97;4.78;;;;;;;29.99;29.20;100004.84;5119412;27;33253;-91
2021/07/22 15:40:37;;;;;;;7.32;4.85;;;;;;;30.14;27.23;100000.97;5153739;27;34465;-91
2021/07/22 15:43:05;;;;;;;7.45;4.60;;;;;;;30.17;27.32;99995.38;5119428;27;34859;-91
2021/07/22 15:45:33;;;;;;;6.65;4.65;;;;;;;30.13;27.35;99995.72;5153285;27;34961;-92
2021/07/22 15:48:02;;;;;;;6.22;4.80;;;;;;;30.22;27.94;100002.19;5153323;27;32937;-91
2021/07/22 15:50:30;;;;;;;7.30;5.15;;;;;;;30.10;27.93;99996.81;5153635;27;33592;-90
2021/07/22 15:52:58;;;;;;;6.90;4.47;;;;;;;30.05;28.13;100001.69;5153252;27;34677;-91
2021/07/22 15:55:26;;;;;;;6.12;5.05;;;;;;;29.99;29.02;99991.44;5153212;27;33696;-91
2021/07/22 15:57:54;;;;;;;7.62;4.65;;;;;;;30.07;29.67;99989.00;5153108;27;32931;-90
2021/07/22 16:00:29;;;;;;;7.70;4.97;;;;;;;30.05;28.94;99995.44;5170432;27;34854;-91
2021/07/22 16:02:58;;;;;;;8.25;4.80;;;;;;;30.10;28.53;99986.09;5119832;27;33862;-92
2021/07/22 16:05:26;;;;;;;6.50;5.22;;;;;;;29.88;28.96;99990.56;5136766;27;34189;-92
2021/07/22 16:07:54;;;;;;;10.48;4.97;;;;;;;29.89;29.60;99992.25;5136758;27;33572;-91
2021/07/22 16:10:22;;;;;;;5.87;4.43;;;;;;;30.05;29.41;99984.72;5153826;27;33443;-91
2021/07/22 16:12:50;;;;;;;7.50;4.87;;;;;;;30.17;28.68;99983.78;5171833;27;34247;-91
2021/07/22 16:15:18;;;;;;;6.10;4.93;;;;;;;30.05;28.24;99982.91;5153859;27;33637;-90
2021/07/22 16:17:47;;;;;;;7.25;5.12;;;;;;;30.08;28.78;99979.13;5168572;27;33934;-89
2021/07/22 16:20:14;;;;;;;10.52;4.93;;;;;;;29.97;28.98;99979.97;5168253;27;35216;-88
2021/07/22 16:22:42;;;;;;;7.43;4.90;;;;;;;29.92;29.20;99971.44;5188561;27;35696;-90
2021/07/22 16:25:26;;;;;;;6.27;4.77;;;;;;;29.94;28.86;99973.97;5157961;27;34157;-91
2021/07/22 16:27:53;;;;;;;7.28;5.00;;;;;;;29.90;28.99;99977.87;5153889;27;32779;-89
2021/07/22 16:30:21;;;;;;;5.70;4.28;;;;;;;29.94;28.87;99965.94;5170604;27;34095;-88
2021/07/22 16:33:06;;;;;;;5.57;4.70;;;;;;;29.80;29.03;99969.69;5173354;27;34393;-93
2021/07/22 16:35:59;;;;;;;5.47;4.97;;;;;;;29.88;29.82;99967.25;5188533;27;35321;-93
2021/07/22 16:38:46;;;;;;;6.57;5.30;;;;;;;29.58;31.98;99964.22;5155334;27;32879;-90
2021/07/22 16:41:14;;;;;;;6.60;5.37;;;;;;;29.74;29.75;99980.00;5184544;27;34563;-90
2021/07/22 16:43:41;;;;;;;6.55;5.43;;;;;;;29.67;29.76;99971.53;5168101;27;33943;-91
2021/07/22 16:46:20;;;;;;;8.15;5.45;;;;;;;29.72;29.26;99971.19;5186231;27;34450;-93
2021/07/22 16:49:11;;;;;;;;;;;;;;;29.58;29.83;99968.72;5168106;27;34800;-93
2021/07/22 16:52:30;;;;;;;;;;;;;;;;;;;;;
2021/07/22 17:09:13;;;;;;;10.93;5.40;;;;;;;29.13;31.90;99971.16;4956715;28;34250;-96
2021/07/22 17:12:15;;;;;;;6.95;5.10;;;;;;;29.19;31.13;99970.72;4959862;28;34934;-96
2021/07/22 17:15:16;;;;;;;7.60;5.30;;;;;;;29.04;32.75;99973.66;5001419;28;33853;-92
2021/07/22 17:17:44;;;;;;;11.75;5.53;;;;;;;28.73;34.91;99970.53;5051086;28;33119;-93
2021/07/22 17:20:18;;;;;;;7.07;4.75;;;;;;;28.93;34.93;99966.38;5051420;28;33781;-95
2021/07/22 17:22:55;;;;;;;6.80;5.07;;;;;;;28.92;34.63;99974.53;5052719;28;34998;-94
2021/07/22 17:25:44;;;;;;;6.72;5.00;;;;;;;28.88;34.39;99973.94;5057627;28;33652;-94
2021/07/22 17:28:30;;;;;;;6.53;5.25;;;;;;;28.94;34.43;99972.59;5056927;28;32947;-93
2021/07/22 17:31:07;;;;;;;7.03;4.70;;;;;;;28.83;35.18;99976.06;5071263;28;34227;-93
2021/07/22 17:33:52;;;;;;;11.95;5.78;;;;;;;28.80;35.11;99977.16;5071475;28;35043;-93
2021/07/22 17:36:40;;;;;;;7.28;5.80;;;;;;;28.75;35.15;99979.31;5120074;27;33985;-94
2021/07/22 17:39:28;;;;;;;9.13;5.65;;;;;;;28.66;35.26;99971.94;5154490;27;34114;-94
2021/07/22 17:41:59;;;;;;;6.53;5.12;;;;;;;28.73;35.22;99980.38;5153950;27;34322;-93
2021/07/22 17:44:45;;;;;;;8.07;5.50;;;;;;;28.67;35.60;99978.97;5160632;27;34151;-92
2021/07/22 17:47:13;;;;;;;12.27;5.28;;;;;;;28.49;36.07;99977.59;5140330;27;33602;-91
2021/07/22 17:49:41;;;;;;;9.20;5.45;;;;;;;28.56;35.48;99984.22;5173025;27;33847;-92
2021/07/22 17:55:25;;;;;;;10.45;5.87;;;;;;;28.52;36.11;99985.41;5179882;27;34711;-95
2021/07/22 17:58:40;;;;;;;8.05;5.53;;;;;;;28.39;36.65;99975.66;5173780;27;34110;-92
2021/07/22 18:01:09;;;;;;;13.60;7.47;;;;;;;28.37;36.66;99975.78;5157643;27;34663;-91
2021/07/22 18:03:40;;;;;;;12.40;5.62;;;;;;;28.34;37.05;99978.66;5171569;27;34348;-94
2021/07/22 18:06:17;;;;;;;8.82;5.95;;;;;;;28.24;37.38;99977.63;5171404;27;35070;-93
2021/07/22 18:09:21;;;;;;;9.40;5.45;;;;;;;28.09;37.98;99978.69;5174576;27;33814;-96
2021/07/22 18:12:27;;;;;;;9.40;5.78;;;;;;;28.16;37.86;99974.62;5193818;27;33558;-93
2021/07/22 18:15:32;;;;;;;9.98;5.57;;;;;;;28.04;38.58;99983.50;5160583;27;33712;-93
2021/07/22 18:38:29;;;;;;;13.52;6.03;;;;;;;27.32;42.02;99987.41;5189038;27;20067;-93
2021/07/22 18:40:57;;;;;;;14.98;6.10;;;;;;;27.08;42.40;99991.69;5133552;27;33243;-93
2021/07/22 18:43:47;;;;;;;8.65;5.62;;;;;;;27.04;42.77;99991.97;5122193;27;35460;-93
2021/07/22 18:46:40;;;;;;;8.68;5.78;;;;;;;26.93;42.88;99994.50;5136560;27;33934;-90
2021/07/22 18:50:04;;;;;;;10.15;5.50;;;;;;;26.93;43.18;99991.84;5133195;27;33452;-95
2021/07/22 18:53:33;;;;;;;9.45;5.70;;;;;;;26.89;43.35;100004.50;5137596;27;34296;-93
2021/07/22 18:56:08;;;;;;;12.63;6.00;;;;;;;26.66;43.66;100002.41;5155546;27;33824;-96
2021/07/22 18:58:57;;;;;;;13.50;6.22;;;;;;;26.49;43.91;100006.13;5126370;27;34039;-92
2021/07/22 19:01:30;;;;;;;10.27;5.87;;;;;;;26.44;43.97;100010.03;5172337;27;33617;-93
2021/07/22 19:04:12;;;;;;;8.10;5.70;;;;;;;26.36;44.00;100009.66;5136563;27;33456;-93
2021/07/22 19:07:03;;;;;;;12.07;5.80;;;;;;;26.25;44.22;100012.97;5133335;27;33435;-92
2021/07/22 19:10:07;;;;;;;;;;;;;;;;;;;;;
2021/07/22 19:13:15;;;;;;;9.00;5.78;;;;;;;26.09;44.26;100015.69;5150649;27;34162;-89
2021/07/22 19:15:44;;;;;;;8.85;5.90;;;;;;;25.72;45.27;100016.13;5133031;27;34300;-91
2021/07/22 19:21:16;;;;;;;13.02;5.22;;;;;;;25.49;45.82;100021.94;5137359;27;34293;-92
2021/07/22 19:23:53;;;;;;;11.02;6.07;;;;;;;25.38;46.37;100016.34;5133572;27;33990;-93
2021/07/22 19:26:41;;;;;;;11.80;5.95;;;;;;;25.14;47.03;100020.41;5118747;27;33931;-91
2021/07/22 19:29:13;;;;;;;8.10;5.80;;;;;;;25.03;47.54;100022.81;5132883;27;34648;-91
2021/07/22 19:31:41;;;;;;;9.65;6.65;;;;;;;24.95;47.72;100020.56;5115281;27;34437;-91
2021/07/22 19:34:10;;;;;;;8.68;6.45;;;;;;;25.03;47.54;100022.81;5132824;27;33210;-93
2021/07/22 19:36:39;;;;;;;12.80;6.50;;;;;;;25.02;47.39;100029.06;5115948;27;32820;-90
2021/07/22 19:39:07;;;;;;;9.80;6.62;;;;;;;25.11;47.15;100026.75;5098528;27;35254;-92
2021/07/22 19:41:35;;;;;;;10.02;6.57;;;;;;;25.12;47.28;100024.97;5114425;27;33710;-90
2021/07/22 19:44:05;;;;;;;10.68;6.43;;;;;;;25.19;46.99;100032.53;5113998;27;32846;-92
2021/07/22 19:46:33;;;;;;;9.00;6.45;;;;;;;25.22;46.90;100034.16;5115151;27;34185;-91
2021/07/22 19:49:01;;;;;;;10.07;7.30;;;;;;;25.14;47.21;100037.25;5116328;27;34144;-90
2021/07/22 19:51:33;;;;;;;11.45;7.32;;;;;;;24.92;47.51;100036.69;5132873;27;34785;-95
2021/07/22 19:54:16;;;;;;;;;;;;;;;24.80;47.57;100038.25;5115698;27;33612;-93
2021/07/22 19:57:08;;;;;;;10.15;6.40;;;;;;;24.80;47.55;100040.03;5118257;27;34216;-91
2021/07/22 19:59:42;;;;;;;11.43;6.30;;;;;;;24.95;47.21;100041.00;5115272;27;35961;-89
2021/07/22 20:02:10;;;;;;;7.20;6.43;;;;;;;24.84;47.23;100045.09;5151327;27;33644;-91
2021/07/22 20:04:38;;;;;;;10.93;6.62;;;;;;;24.77;47.51;100035.72;5116266;27;33532;-90
2021/07/22 20:07:09;;;;;;;8.70;6.28;;;;;;;24.71;47.51;100038.72;5115858;27;34410;-90
2021/07/22 20:09:39;;;;;;;10.95;6.50;;;;;;;24.65;47.50;100049.66;5099841;27;33784;-91
2021/07/22 20:12:11;;;;;;;10.93;6.97;;;;;;;24.54;47.62;100046.72;5132231;27;34300;-91
2021/07/22 20:14:39;;;;;;;10.00;6.30;;;;;;;24.42;48.17;100036.75;5128145;27;33737;-90
2021/07/22 20:17:07;;;;;;;9.73;6.40;;;;;;;24.14;49.34;100042.66;5149054;27;34550;-93
2021/07/22 20:19:44;;;;;;;10.15;6.72;;;;;;;24.21;48.97;100040.53;5116844;27;34413;-95
2021/07/22 20:22:23;;;;;;;10.52;6.68;;;;;;;24.07;49.28;100040.37;5149801;27;34497;-92
2021/07/22 20:24:57;;;;;;;9.70;6.20;;;;;;;24.14;49.22;100039.12;5134079;27;34090;-90
2021/07/22 20:27:25;;;;;;;8.27;6.45;;;;;;;24.29;48.91;100029.50;5149270;27;34405;-89
2021/07/22 20:29:55;;;;;;;8.23;6.57;;;;;;;24.32;48.81;100040.81;5149451;27;33928;-91
2021/07/22 20:32:23;;;;;;;9.15;6.70;;;;;;;24.26;48.82;100033.19;5149667;27;33909;-91